Delta Virtual Airport Information Service

Toronto Pearson International Airport

ICAO: CYYZ Country: Canada
Latitude: 43.6772 Longitude: -79.6305
Latest Arrival : JZA883 (EKCH-CYYZ) Latest Departure : DALJUMP (CYYZ-KRDU)


WX CaptureLIVE
Data provided by noaa.gov | Fetched at 23:57:08

METAR : CYYZ 250400Z 17004KT 15SM SCT060 BKN100 19/14 A2993 RMK SC4AC3 SLP137 DENSITY ALT 1200FT

TAF : CYYZ 250247Z 2503/2606 14005KT P6SM FEW050 BKN100 TEMPO 2503/2505 P6SM -SHRA VCTS SCT030CB BKN050 FM250500 18010KT P6SM BKN030 FM250900 16010KT P6SM FEW030 BECMG 2510/2512 24012KT FM252000 17010KT P6SM VCTS SCT030CB BKN050 FM260200 22008KT P6SM FEW060 RMK NXT FCST BY 250600Z


Runway Data for CYYZ
Data provided by openaviationdata.com

Runway ID Mag Var Hdg Length Elevation Surface ILS Freq ILS Id ILS Slope
5 -10 56° 11089 ft 569 ft Asphalt 109.7 ITX 3
06L -10 56° 9728 ft 569 ft Concrete 109.1 IJS 3
06R -10 56° 8995 ft 569 ft Asphalt 111.95 ICV 3
15L -10 146° 11134 ft 569 ft Asphalt 110.5 IRW 3
15R -10 147° 9088 ft 569 ft Asphalt 110.95 ILP 3
23 -10 236° 11089 ft 569 ft Asphalt 111.5 IYZ 3
24L -10 236° 8995 ft 569 ft Asphalt 111.95 IDP 3
24R -10 236° 9728 ft 569 ft Concrete 109.3 INV 3
33L -10 327° 9088 ft 569 ft Asphalt 110.95 ITO 3
33R -10 326° 11134 ft 569 ft Asphalt 110.3 ILE 3

Toronto Pearson International Airport, Canada
Use only for reference purposes



Not for navigational purposes.